Time;durP1;ratioP1;P1;durP2;ratioP2;P2;SDS_P1;SDS_P2;PMS_P1;PMS_P2;Temp;Humidity;BMP_temperature;BMP_pressure;BME280_temperature;BME280_humidity;BME280_pressure;Samples;Min_cycle;Max_cycle;Signal;HPM_P1;HPM_P2
2023/08/07 00:00:26;;;;;;;3.47;1.53;;;13.20;99.90;;;;;;4981186;28;20042;-69
2023/08/07 00:02:52;;;;;;;7.53;1.80;;;13.20;99.90;;;;;;4990777;28;20542;-67
2023/08/07 00:05:17;;;;;;;4.67;1.40;;;13.20;99.90;;;;;;4977934;28;20102;-66
2023/08/07 00:07:43;;;;;;;9.70;2.13;;;13.20;99.90;;;;;;4980712;28;20038;-68
2023/08/07 00:10:09;;;;;;;2.83;1.83;;;13.20;99.90;;;;;;4978919;28;20031;-68
2023/08/07 00:12:35;;;;;;;4.00;1.70;;;13.20;99.90;;;;;;4985210;28;20289;-66
2023/08/07 00:15:02;;;;;;;3.73;1.50;;;13.20;99.90;;;;;;4982325;28;20501;-67
2023/08/07 00:17:27;;;;;;;;;;;13.10;99.90;;;;;;4978151;28;20068;-65
2023/08/07 00:19:53;;;;;;;3.42;1.58;;;13.10;99.90;;;;;;4984229;28;20377;-67
2023/08/07 00:22:18;;;;;;;4.33;1.47;;;13.10;99.90;;;;;;4980287;28;20019;-67
2023/08/07 00:24:44;;;;;;;4.33;1.93;;;12.90;99.90;;;;;;4985183;28;20398;-68
2023/08/07 00:27:10;;;;;;;3.83;1.40;;;13.00;99.90;;;;;;4982275;28;20061;-66
2023/08/07 00:29:36;;;;;;;6.10;2.20;;;12.90;99.90;;;;;;4976137;28;20030;-67
2023/08/07 00:32:02;;;;;;;5.68;1.77;;;12.80;99.90;;;;;;4974326;28;20047;-68
2023/08/07 00:34:28;;;;;;;4.50;1.95;;;12.80;99.90;;;;;;4982973;28;20031;-69
2023/08/07 00:36:53;;;;;;;2.63;1.67;;;12.80;99.90;;;;;;4982824;28;20037;-68
2023/08/07 00:39:19;;;;;;;4.37;1.83;;;12.80;99.90;;;;;;4977615;28;20475;-66
2023/08/07 00:41:44;;;;;;;3.97;1.87;;;12.90;99.90;;;;;;4978196;28;20058;-66
2023/08/07 00:44:10;;;;;;;3.80;1.70;;;12.90;99.90;;;;;;4980327;28;20843;-68
2023/08/07 00:46:38;;;;;;;8.67;2.10;;;13.00;99.90;;;;;;4978642;28;20432;-68
2023/08/07 00:49:05;;;;;;;4.57;2.40;;;13.00;99.90;;;;;;4978330;28;20092;-67
2023/08/07 00:51:31;;;;;;;2.92;1.75;;;13.10;99.90;;;;;;4984640;28;20053;-66
2023/08/07 00:53:58;;;;;;;4.25;1.67;;;13.20;99.90;;;;;;4981972;28;20030;-64
2023/08/07 00:56:23;;;;;;;2.67;1.60;;;13.20;99.90;;;;;;4981217;28;20506;-66
2023/08/07 00:58:50;;;;;;;5.35;1.90;;;13.10;99.90;;;;;;4980921;28;20034;-68
2023/08/07 01:01:16;;;;;;;6.57;1.75;;;13.10;99.90;;;;;;4979753;28;20034;-67
2023/08/07 01:03:41;;;;;;;2.90;1.70;;;13.00;99.90;;;;;;4983101;28;20035;-68
2023/08/07 01:06:07;;;;;;;4.00;1.97;;;13.00;99.90;;;;;;4980652;28;20062;-68
2023/08/07 01:08:33;;;;;;;7.60;1.60;;;13.10;99.90;;;;;;4979145;28;20030;-66
2023/08/07 01:11:04;;;;;;;5.50;1.70;;;13.10;99.90;;;;;;4982576;28;20305;-65
2023/08/07 01:13:42;;;;;;;3.35;1.70;;;13.30;99.90;;;;;;4982185;28;20030;-67
2023/08/07 01:16:18;;;;;;;3.70;1.80;;;13.30;99.90;;;;;;4978421;28;20490;-68
2023/08/07 01:18:46;;;;;;;3.35;1.88;;;13.40;99.90;;;;;;4977142;28;20703;-68
2023/08/07 01:21:18;;;;;;;4.03;1.88;;;13.70;99.90;;;;;;4982894;28;20035;-67
2023/08/07 01:23:46;;;;;;;4.32;1.60;;;13.80;99.90;;;;;;4981686;28;20023;-66
2023/08/07 01:26:12;;;;;;;6.50;2.22;;;13.90;99.90;;;;;;4981652;28;20145;-65
2023/08/07 01:28:44;;;;;;;2.60;1.60;;;13.90;99.90;;;;;;4975640;28;20022;-66
2023/08/07 01:31:14;;;;;;;8.52;2.13;;;13.90;99.90;;;;;;4979795;28;20047;-67
2023/08/07 01:33:53;;;;;;;2.40;1.70;;;13.70;99.90;;;;;;4980203;28;20037;-69
2023/08/07 01:36:21;;;;;;;3.70;1.98;;;13.70;99.90;;;;;;4977107;28;20049;-67
2023/08/07 01:38:49;;;;;;;3.17;2.13;;;13.70;99.90;;;;;;4973746;28;20490;-67
2023/08/07 01:41:15;;;;;;;10.13;2.13;;;13.80;99.90;;;;;;4976111;28;20023;-67
2023/08/07 01:43:41;;;;;;;10.37;1.97;;;13.90;99.90;;;;;;4982953;28;20472;-67
2023/08/07 01:46:06;;;;;;;7.00;3.50;;;13.80;99.90;;;;;;4983355;28;20052;-68
2023/08/07 01:48:32;;;;;;;6.47;1.40;;;13.80;99.90;;;;;;4976922;28;20121;-68
2023/08/07 01:50:57;;;;;;;6.30;2.43;;;13.80;99.90;;;;;;4977769;28;20091;-68
2023/08/07 01:53:23;;;;;;;4.67;2.20;;;14.00;99.90;;;;;;4980180;28;20483;-68
2023/08/07 01:55:48;;;;;;;8.23;1.67;;;14.00;99.90;;;;;;4978103;28;20583;-65
2023/08/07 01:58:14;;;;;;;7.33;2.23;;;14.10;99.90;;;;;;4975008;28;20464;-66
2023/08/07 02:00:40;;;;;;;8.77;2.07;;;14.00;99.90;;;;;;4978024;28;20042;-65
2023/08/07 02:03:05;;;;;;;6.77;2.20;;;13.90;99.90;;;;;;4975879;28;20033;-68
2023/08/07 02:05:31;;;;;;;5.23;2.10;;;13.90;99.90;;;;;;4981558;28;20158;-66
2023/08/07 02:07:57;;;;;;;5.73;1.83;;;13.90;99.90;;;;;;4978785;28;20133;-66
2023/08/07 02:10:23;;;;;;;3.88;2.15;;;13.80;99.90;;;;;;4973829;28;20062;-66
2023/08/07 02:12:49;;;;;;;7.47;2.00;;;13.50;99.90;;;;;;4979479;28;20494;-65
2023/08/07 02:15:14;;;;;;;5.90;2.28;;;13.70;99.90;;;;;;4980346;28;20037;-66
2023/08/07 02:17:41;;;;;;;5.93;2.20;;;13.70;99.90;;;;;;4978068;28;20043;-65
2023/08/07 02:20:07;;;;;;;3.63;2.17;;;13.40;99.90;;;;;;4973959;28;20023;-68
2023/08/07 02:22:33;;;;;;;4.68;2.33;;;13.40;99.90;;;;;;4976585;28;20031;-66
2023/08/07 02:24:58;;;;;;;7.47;2.20;;;13.60;99.90;;;;;;4977960;28;20478;-67
2023/08/07 02:27:24;;;;;;;6.00;2.53;;;13.60;99.90;;;;;;4980902;28;20041;-66
2023/08/07 02:29:50;;;;;;;7.57;2.47;;;13.60;99.90;;;;;;4981601;28;20486;-66
2023/08/07 02:32:16;;;;;;;;;;;13.50;99.90;;;;;;4979682;28;20057;-68
2023/08/07 02:34:42;;;;;;;4.97;1.90;;;13.60;99.90;;;;;;4972537;28;20376;-66
2023/08/07 02:37:08;;;;;;;4.95;2.50;;;13.30;99.90;;;;;;4977906;28;20465;-67
2023/08/07 02:39:33;;;;;;;7.27;2.10;;;13.30;99.90;;;;;;4982055;28;20118;-67
2023/08/07 02:41:59;;;;;;;8.20;2.67;;;13.40;99.90;;;;;;4983497;28;20053;-68
2023/08/07 02:44:24;;;;;;;8.87;2.97;;;13.50;99.90;;;;;;4978223;28;20038;-66
2023/08/07 02:46:50;;;;;;;8.37;2.90;;;13.70;99.90;;;;;;4978323;28;20559;-67
2023/08/07 02:49:16;;;;;;;8.60;2.73;;;13.70;99.90;;;;;;4973399;28;20023;-67
2023/08/07 02:51:41;;;;;;;4.77;2.37;;;13.80;99.90;;;;;;4982151;28;20528;-66
2023/08/07 02:54:07;;;;;;;4.27;2.80;;;13.90;99.90;;;;;;4974888;28;20050;-68
2023/08/07 02:56:32;;;;;;;9.77;2.30;;;13.70;99.90;;;;;;4975498;28;20035;-66
2023/08/07 02:58:59;;;;;;;3.50;2.17;;;13.70;99.90;;;;;;4976963;28;20101;-67
2023/08/07 03:01:24;;;;;;;3.70;2.10;;;13.80;99.90;;;;;;4980861;28;20563;-64
2023/08/07 03:03:50;;;;;;;3.23;2.20;;;13.70;99.90;;;;;;4974382;28;20035;-65
2023/08/07 03:06:16;;;;;;;8.13;2.73;;;13.80;99.90;;;;;;4978373;28;20072;-64
2023/08/07 03:08:42;;;;;;;6.77;2.27;;;13.80;99.90;;;;;;4977509;28;20014;-68
2023/08/07 03:11:08;;;;;;;;;;;13.70;99.90;;;;;;4975924;28;20050;-67
2023/08/07 03:13:33;;;;;;;6.07;2.80;;;13.70;99.90;;;;;;4975315;28;19906;-68
2023/08/07 03:16:04;;;;;;;3.00;1.97;;;13.70;99.90;;;;;;4980485;28;20575;-67
2023/08/07 03:18:31;;;;;;;6.75;2.30;;;13.50;99.90;;;;;;4978510;28;20404;-65
2023/08/07 03:20:57;;;;;;;6.55;2.72;;;13.30;99.90;;;;;;4974025;28;20088;-64
2023/08/07 03:23:23;;;;;;;5.37;2.57;;;13.40;99.90;;;;;;4982925;28;20030;-67
2023/08/07 03:25:49;;;;;;;6.10;2.40;;;13.40;99.90;;;;;;4979378;28;20261;-67
2023/08/07 03:28:15;;;;;;;6.65;2.53;;;13.50;99.90;;;;;;4975804;28;20058;-68
2023/08/07 03:30:41;;;;;;;4.07;2.28;;;13.60;99.90;;;;;;4983860;28;20482;-66
2023/08/07 03:33:07;;;;;;;9.45;3.03;;;13.60;99.90;;;;;;4983153;28;20042;-67
2023/08/07 03:35:32;;;;;;;6.67;2.60;;;13.40;99.90;;;;;;4978317;28;20479;-66
2023/08/07 03:37:58;;;;;;;7.10;3.00;;;13.30;99.90;;;;;;4979792;28;20031;-66
2023/08/07 03:40:23;;;;;;;2.80;1.90;;;13.20;99.90;;;;;;4976053;28;20046;-65
2023/08/07 03:42:49;;;;;;;6.77;2.60;;;13.00;99.90;;;;;;4983667;28;20974;-64
2023/08/07 03:45:14;;;;;;;7.23;2.43;;;12.90;99.90;;;;;;4982092;28;20079;-66
2023/08/07 03:47:40;;;;;;;11.30;2.70;;;12.90;99.90;;;;;;4985432;28;20034;-64
2023/08/07 03:50:06;;;;;;;11.37;2.50;;;13.00;99.90;;;;;;4983759;28;20062;-65
2023/08/07 03:52:32;;;;;;;7.35;3.03;;;12.80;99.90;;;;;;4982429;28;20039;-67
2023/08/07 03:54:58;;;;;;;4.07;2.50;;;12.80;99.90;;;;;;4983435;28;20038;-65
2023/08/07 03:57:24;;;;;;;5.90;2.17;;;12.70;99.90;;;;;;4985495;28;20033;-65
2023/08/07 03:59:49;;;;;;;5.68;2.72;;;12.80;99.90;;;;;;4979846;28;20038;-65
2023/08/07 04:02:15;;;;;;;4.33;2.43;;;12.80;99.90;;;;;;4980815;28;20080;-68
2023/08/07 04:04:40;;;;;;;6.27;2.47;;;12.70;99.90;;;;;;4984166;28;20018;-67
2023/08/07 04:07:06;;;;;;;6.20;2.50;;;12.70;99.90;;;;;;4980552;28;20460;-65
2023/08/07 04:09:32;;;;;;;8.97;2.80;;;12.70;99.90;;;;;;4980975;28;20126;-67
2023/08/07 04:11:57;;;;;;;9.77;2.92;;;12.80;99.90;;;;;;4982561;28;20041;-66
2023/08/07 04:14:23;;;;;;;8.47;3.00;;;12.80;99.90;;;;;;4976896;28;20856;-66
2023/08/07 04:16:49;;;;;;;5.90;2.67;;;12.70;99.90;;;;;;4978828;28;20540;-66
2023/08/07 04:19:14;;;;;;;10.20;2.77;;;12.70;99.90;;;;;;4980515;28;20386;-65
2023/08/07 04:21:40;;;;;;;6.30;2.60;;;12.80;99.90;;;;;;4979592;28;20026;-66
2023/08/07 04:24:10;;;;;;;9.67;2.77;;;12.70;99.90;;;;;;4980921;28;20724;-65
2023/08/07 04:26:36;;;;;;;8.57;2.80;;;12.70;99.90;;;;;;4980302;28;20026;-66
2023/08/07 04:29:02;;;;;;;9.10;2.92;;;12.70;99.90;;;;;;4982163;28;20046;-68
2023/08/07 04:31:30;;;;;;;7.60;2.70;;;12.50;99.90;;;;;;4978158;28;20039;-67
2023/08/07 04:33:56;;;;;;;5.40;2.78;;;12.50;99.90;;;;;;4981267;28;20041;-65
2023/08/07 04:36:22;;;;;;;4.57;2.83;;;12.50;99.90;;;;;;4979434;28;20027;-65
2023/08/07 04:38:47;;;;;;;6.90;2.87;;;12.50;99.90;;;;;;4979427;28;20057;-64
2023/08/07 04:41:13;;;;;;;6.80;2.70;;;12.50;99.90;;;;;;4979349;28;20033;-68
2023/08/07 04:43:39;;;;;;;5.67;2.70;;;12.50;99.90;;;;;;4984383;28;20034;-66
2023/08/07 04:46:04;;;;;;;8.70;3.10;;;12.50;99.90;;;;;;4976735;28;20382;-65
2023/08/07 04:48:31;;;;;;;5.03;2.97;;;12.50;99.90;;;;;;4977514;28;20057;-68
2023/08/07 04:50:57;;;;;;;5.35;3.15;;;12.40;99.90;;;;;;4980740;28;20496;-67
2023/08/07 04:53:23;;;;;;;9.38;3.05;;;12.40;99.90;;;;;;4981184;28;20050;-67
2023/08/07 04:55:48;;;;;;;4.93;2.63;;;12.30;99.90;;;;;;4982988;28;20081;-67
2023/08/07 04:58:14;;;;;;;4.03;2.60;;;12.30;99.90;;;;;;4972328;28;20041;-68
2023/08/07 05:00:39;;;;;;;6.53;2.70;;;12.20;99.90;;;;;;4978381;28;20056;-67
2023/08/07 05:03:05;;;;;;;4.57;2.47;;;12.20;99.90;;;;;;4983473;28;20379;-67
2023/08/07 05:05:31;;;;;;;6.93;2.40;;;12.10;99.90;;;;;;4976422;28;20054;-68
2023/08/07 05:07:58;;;;;;;4.83;2.77;;;12.10;99.90;;;;;;4973316;28;20595;-68
2023/08/07 05:10:23;;;;;;;5.85;2.58;;;12.10;99.90;;;;;;4980374;28;20037;-66
2023/08/07 05:12:55;;;;;;;3.37;2.33;;;12.20;99.90;;;;;;4980196;28;20042;-68
2023/08/07 05:15:22;;;;;;;5.28;2.40;;;12.70;99.90;;;;;;4979702;28;20033;-67
2023/08/07 05:17:48;;;;;;;6.25;2.47;;;13.40;99.90;;;;;;4982589;28;20027;-67
2023/08/07 05:20:14;;;;;;;4.03;2.20;;;14.70;99.90;;;;;;4981704;28;20425;-66
2023/08/07 05:22:39;;;;;;;4.57;2.10;;;16.00;99.90;;;;;;4979933;28;20083;-67
2023/08/07 05:25:05;;;;;;;3.30;2.23;;;16.70;99.90;;;;;;4978478;28;20031;-66
2023/08/07 05:27:31;;;;;;;4.53;2.42;;;18.20;99.90;;;;;;4979360;28;20038;-66
2023/08/07 05:29:56;;;;;;;3.30;2.30;;;16.90;99.90;;;;;;4978295;28;20378;-67
2023/08/07 05:32:22;;;;;;;10.03;2.43;;;15.70;99.90;;;;;;4978622;28;20050;-67
2023/08/07 05:34:47;;;;;;;6.10;2.03;;;18.00;99.90;;;;;;4981968;28;20031;-67
2023/08/07 05:37:13;;;;;;;4.53;1.97;;;15.60;99.90;;;;;;4979268;28;20034;-66
2023/08/07 05:39:38;;;;;;;4.57;2.40;;;14.10;99.90;;;;;;4981701;28;20152;-67
2023/08/07 05:42:04;;;;;;;4.27;2.40;;;13.60;99.90;;;;;;4992965;28;20034;-66
2023/08/07 05:44:30;;;;;;;7.40;2.47;;;13.70;99.90;;;;;;4998179;28;20158;-66
2023/08/07 05:46:56;;;;;;;9.13;2.70;;;15.10;99.90;;;;;;4984491;28;20481;-66
2023/08/07 05:49:22;;;;;;;5.53;1.90;;;16.80;99.90;;;;;;4980657;28;20035;-66
2023/08/07 05:51:47;;;;;;;6.23;2.63;;;17.90;99.90;;;;;;4978229;28;20526;-68
2023/08/07 05:54:13;;;;;;;3.40;1.90;;;18.00;98.90;;;;;;4981903;28;20031;-67
2023/08/07 05:56:41;;;;;;;5.53;2.15;;;18.50;97.70;;;;;;4983177;28;20082;-65
2023/08/07 05:59:06;;;;;;;4.85;1.90;;;16.80;98.90;;;;;;4989165;28;20019;-68
2023/08/07 06:01:32;;;;;;;4.97;2.50;;;15.60;99.90;;;;;;4979354;28;20045;-67
2023/08/07 06:03:58;;;;;;;3.17;1.93;;;16.70;99.90;;;;;;4987398;28;20493;-68
2023/08/07 06:06:25;;;;;;;6.35;2.42;;;18.60;99.90;;;;;;4977960;28;20034;-67
2023/08/07 06:08:51;;;;;;;7.07;2.25;;;18.70;99.00;;;;;;4978593;28;20095;-67
2023/08/07 06:11:17;;;;;;;5.25;1.98;;;19.70;98.40;;;;;;4977735;28;20495;-66
2023/08/07 06:13:43;;;;;;;2.77;1.73;;;19.00;96.90;;;;;;4995952;28;20089;-66
2023/08/07 06:16:09;;;;;;;4.28;2.10;;;18.10;97.50;;;;;;4995401;28;20075;-65
2023/08/07 06:18:36;;;;;;;8.00;2.75;;;18.20;99.90;;;;;;4980816;28;20046;-65
2023/08/07 06:21:01;;;;;;;6.65;2.10;;;19.00;98.60;;;;;;4979056;28;20133;-65
2023/08/07 06:23:28;;;;;;;4.20;2.03;;;19.20;97.50;;;;;;4979350;28;20125;-65
2023/08/07 06:25:55;;;;;;;6.20;2.10;;;20.00;93.30;;;;;;4985397;28;20023;-65
2023/08/07 06:28:21;;;;;;;4.03;1.90;;;18.80;96.70;;;;;;4976683;28;20048;-66
2023/08/07 06:30:46;;;;;;;4.70;1.80;;;18.60;96.90;;;;;;4989934;28;20038;-66
2023/08/07 06:33:12;;;;;;;4.57;1.60;;;18.60;98.30;;;;;;4992581;28;20139;-65
2023/08/07 06:35:39;;;;;;;4.30;2.57;;;18.40;96.60;;;;;;4978271;28;20038;-66
2023/08/07 06:38:05;;;;;;;5.72;2.22;;;18.30;97.40;;;;;;4976911;28;20019;-65
2023/08/07 06:40:30;;;;;;;7.93;1.98;;;18.20;99.20;;;;;;4977593;28;20033;-68
2023/08/07 06:42:56;;;;;;;3.00;1.87;;;18.20;96.70;;;;;;4983942;28;20061;-67
2023/08/07 06:45:21;;;;;;;3.77;1.93;;;18.10;96.40;;;;;;4988828;28;20035;-66
2023/08/07 06:47:47;;;;;;;3.07;1.73;;;18.40;95.40;;;;;;4987139;28;20105;-67
2023/08/07 06:50:14;;;;;;;6.80;1.77;;;18.40;95.10;;;;;;4973004;28;20018;-67
2023/08/07 06:52:40;;;;;;;5.20;2.28;;;18.90;94.80;;;;;;4988471;28;20109;-66
2023/08/07 06:55:06;;;;;;;9.97;2.10;;;18.80;94.00;;;;;;4969647;28;20109;-67
2023/08/07 06:57:32;;;;;;;4.00;2.08;;;18.30;96.30;;;;;;4975601;28;20113;-68
2023/08/07 06:59:58;;;;;;;5.00;2.00;;;17.70;98.50;;;;;;4988119;28;20129;-66
2023/08/07 07:02:23;;;;;;;8.97;2.40;;;17.40;98.50;;;;;;4974820;28;20038;-67
2023/08/07 07:04:49;;;;;;;5.90;2.03;;;17.30;98.90;;;;;;4975000;28;20040;-68
2023/08/07 07:07:15;;;;;;;6.33;2.10;;;17.40;99.00;;;;;;4984359;28;20029;-65
2023/08/07 07:09:40;;;;;;;3.07;2.13;;;17.30;98.60;;;;;;4989281;28;20038;-66
2023/08/07 07:12:06;;;;;;;2.70;1.77;;;17.30;98.40;;;;;;4979170;28;20406;-67
2023/08/07 07:14:33;;;;;;;5.45;1.60;;;17.20;97.60;;;;;;4989123;28;20046;-65
2023/08/07 07:17:00;;;;;;;3.90;1.63;;;17.20;98.80;;;;;;4987913;28;20038;-65
2023/08/07 07:19:26;;;;;;;4.60;2.45;;;17.00;98.40;;;;;;4977961;28;20027;-65
2023/08/07 07:21:51;;;;;;;2.47;1.60;;;17.10;98.10;;;;;;4980589;28;20030;-66
2023/08/07 07:24:17;;;;;;;4.07;1.83;;;17.10;99.00;;;;;;4978128;28;20498;-65
2023/08/07 07:26:43;;;;;;;5.80;1.93;;;17.30;98.20;;;;;;4978457;28;20604;-65
2023/08/07 07:29:08;;;;;;;4.87;1.80;;;17.30;99.10;;;;;;4976636;28;20118;-65
2023/08/07 07:31:34;;;;;;;5.30;1.53;;;17.20;98.60;;;;;;4985970;28;20045;-66
2023/08/07 07:34:00;;;;;;;4.83;1.50;;;17.20;98.70;;;;;;4978248;28;20557;-66
2023/08/07 07:36:25;;;;;;;8.93;3.83;;;17.20;97.70;;;;;;4983629;28;20030;-67
2023/08/07 07:38:51;;;;;;;7.27;1.50;;;17.10;99.80;;;;;;4980056;28;20506;-65
2023/08/07 07:41:17;;;;;;;4.20;1.73;;;17.20;99.10;;;;;;4980903;28;20026;-66
2023/08/07 07:43:43;;;;;;;4.47;1.88;;;17.30;99.90;;;;;;4986561;28;20034;-66
2023/08/07 07:46:09;;;;;;;6.75;1.88;;;17.50;99.60;;;;;;5001808;28;20028;-67
2023/08/07 07:48:34;;;;;;;3.13;1.73;;;17.70;99.20;;;;;;4980409;28;20405;-67
2023/08/07 07:51:03;;;;;;;5.43;2.77;;;18.00;96.60;;;;;;4990829;28;20080;-68
2023/08/07 07:53:30;;;;;;;5.72;1.58;;;18.00;94.90;;;;;;4985728;28;20044;-66
2023/08/07 07:55:56;;;;;;;;;;;18.10;95.50;;;;;;4974979;28;20107;-66
2023/08/07 07:58:22;;;;;;;6.60;1.80;;;18.90;93.70;;;;;;4974305;28;20654;-66
2023/08/07 08:00:47;;;;;;;2.90;1.33;;;18.40;94.60;;;;;;4984863;28;20023;-67
2023/08/07 08:03:13;;;;;;;4.30;1.80;;;18.10;94.30;;;;;;4985330;28;20040;-68
2023/08/07 08:05:39;;;;;;;2.80;1.48;;;18.00;94.90;;;;;;4979987;28;20033;-66
2023/08/07 08:08:07;;;;;;;4.82;1.58;;;17.90;95.90;;;;;;4981646;28;20031;-65
2023/08/07 08:10:34;;;;;;;7.03;1.60;;;18.00;94.70;;;;;;4990885;28;20066;-66
2023/08/07 08:12:59;;;;;;;;;;;18.10;95.30;;;;;;4982019;28;20524;-66
2023/08/07 08:15:25;;;;;;;4.43;1.60;;;18.00;94.60;;;;;;4974444;28;19918;-67
2023/08/07 08:17:50;;;;;;;4.17;1.63;;;18.10;95.00;;;;;;4979962;28;20037;-67
2023/08/07 08:20:18;;;;;;;3.20;1.57;;;18.20;93.70;;;;;;4981490;28;20033;-67
2023/08/07 08:22:46;;;;;;;6.88;1.63;;;18.40;94.10;;;;;;4979821;28;20046;-67
2023/08/07 08:25:12;;;;;;;5.60;1.88;;;18.40;93.40;;;;;;4983119;28;20109;-67
2023/08/07 08:27:38;;;;;;;6.57;1.30;;;20.20;92.40;;;;;;4988677;28;20149;-67
2023/08/07 08:30:05;;;;;;;4.40;1.63;;;20.60;90.70;;;;;;4982369;28;20121;-67
2023/08/07 08:32:31;;;;;;;5.35;1.70;;;20.80;87.60;;;;;;4984942;28;20031;-67
2023/08/07 08:34:56;;;;;;;3.50;1.20;;;20.80;85.00;;;;;;4983952;28;20050;-67
2023/08/07 08:37:22;;;;;;;3.33;1.50;;;20.80;85.20;;;;;;4990150;28;20046;-68
2023/08/07 08:39:48;;;;;;;2.60;1.33;;;20.40;87.10;;;;;;4991198;28;20038;-67
2023/08/07 08:42:15;;;;;;;6.55;1.38;;;19.80;85.20;;;;;;4978569;28;20066;-67
2023/08/07 08:44:46;;;;;;;4.05;1.40;;;22.20;78.30;;;;;;4979957;28;20117;-67
2023/08/07 08:47:12;;;;;;;4.78;1.20;;;21.40;77.00;;;;;;4977961;28;20536;-67
2023/08/07 08:49:46;;;;;;;6.65;1.38;;;19.90;81.50;;;;;;4980529;28;20566;-68
2023/08/07 08:52:13;;;;;;;2.38;1.40;;;19.30;81.90;;;;;;4978932;28;20078;-69
2023/08/07 08:54:40;;;;;;;2.92;1.50;;;22.20;77.80;;;;;;4977677;28;20376;-69
2023/08/07 08:57:06;;;;;;;3.97;1.00;;;24.20;69.20;;;;;;4987008;28;20433;-68
2023/08/07 08:59:33;;;;;;;2.00;1.10;;;24.10;66.70;;;;;;4987747;28;20032;-66
2023/08/07 09:01:59;;;;;;;5.13;1.10;;;23.60;66.20;;;;;;4986983;28;20030;-65
2023/08/07 09:04:25;;;;;;;4.47;1.42;;;24.40;65.10;;;;;;4984120;28;20517;-66
2023/08/07 09:06:51;;;;;;;3.85;1.10;;;24.10;64.50;;;;;;4987718;28;20034;-65
2023/08/07 09:09:20;;;;;;;2.17;1.37;;;24.30;63.30;;;;;;4982057;28;20117;-67
2023/08/07 09:11:46;;;;;;;3.95;1.30;;;22.10;66.10;;;;;;4981739;28;21191;-67
2023/08/07 09:14:16;;;;;;;;;;;22.40;66.70;;;;;;4978949;28;20026;-65
2023/08/07 09:16:45;;;;;;;1.05;0.73;;;23.90;67.30;;;;;;4988108;28;20428;-65
2023/08/07 09:19:11;;;;;;;1.58;1.00;;;25.10;59.40;;;;;;4983361;28;20121;-65
2023/08/07 09:21:37;;;;;;;2.35;1.13;;;22.90;66.10;;;;;;4978319;28;20109;-66
2023/08/07 09:24:03;;;;;;;1.50;1.10;;;27.00;59.00;;;;;;4985807;28;20041;-65
2023/08/07 09:26:28;;;;;;;3.17;1.45;;;30.70;52.20;;;;;;4983247;28;20049;-67
2023/08/07 09:28:54;;;;;;;2.65;1.20;;;33.10;48.00;;;;;;4992808;28;20037;-67
2023/08/07 09:31:24;;;;;;;3.50;1.10;;;34.60;46.60;;;;;;5003757;28;20054;-68
2023/08/07 09:33:52;;;;;;;4.95;1.50;;;29.80;50.50;;;;;;4979302;28;20069;-68
2023/08/07 09:36:17;;;;;;;4.82;1.00;;;31.10;51.30;;;;;;4996561;28;20038;-67
2023/08/07 09:38:49;;;;;;;3.75;1.05;;;33.10;46.20;;;;;;4980905;28;20030;-66
2023/08/07 09:41:17;;;;;;;1.58;0.90;;;32.30;44.40;;;;;;4978618;28;20421;-66
2023/08/07 09:43:43;;;;;;;5.22;1.30;;;32.40;45.10;;;;;;4978058;28;20026;-67
2023/08/07 09:46:08;;;;;;;1.65;1.00;;;33.30;44.30;;;;;;4984742;28;20343;-65
2023/08/07 09:48:42;;;;;;;1.27;0.95;;;31.70;43.80;;;;;;4979716;28;20035;-67
2023/08/07 09:51:08;;;;;;;2.55;1.00;;;33.50;44.90;;;;;;4975748;28;20039;-68
2023/08/07 09:53:33;;;;;;;4.90;2.08;;;35.90;42.20;;;;;;4981952;28;20036;-67
2023/08/07 09:55:59;;;;;;;;;;;35.10;41.40;;;;;;4980537;28;20035;-69
2023/08/07 09:58:25;;;;;;;2.83;1.00;;;36.10;42.50;;;;;;4981600;28;19918;-64
2023/08/07 10:00:55;;;;;;;;;;;37.40;40.70;;;;;;4995303;28;20477;-64
2023/08/07 10:03:22;;;;;;;1.75;1.05;;;38.40;40.00;;;;;;5002420;28;19913;-64
2023/08/07 10:05:48;;;;;;;2.78;1.00;;;37.20;40.70;;;;;;4975788;28;20478;-64
2023/08/07 10:08:14;;;;;;;;;;;38.70;40.20;;;;;;4984220;28;20030;-65
2023/08/07 10:10:40;;;;;;;1.52;1.00;;;37.10;40.30;;;;;;4990819;28;20428;-64
2023/08/07 10:13:06;;;;;;;1.65;0.80;;;35.90;39.80;;;;;;4985442;28;20134;-64
2023/08/07 10:15:32;;;;;;;;;;;36.10;39.00;;;;;;4998144;28;20041;-64
2023/08/07 10:17:59;;;;;;;1.65;0.90;;;35.80;39.50;;;;;;4978567;28;20008;-65
2023/08/07 10:20:27;;;;;;;4.40;1.10;;;37.40;40.70;;;;;;4986654;28;20084;-64
2023/08/07 10:22:52;;;;;;;1.83;0.95;;;37.40;38.10;;;;;;4985709;28;20038;-65
2023/08/07 10:25:22;;;;;;;2.40;0.80;;;38.50;38.80;;;;;;4984844;28;20039;-65
2023/08/07 10:27:51;;;;;;;1.65;0.90;;;37.10;38.90;;;;;;4985243;28;20537;-64
2023/08/07 10:30:19;;;;;;;1.00;0.70;;;37.20;38.60;;;;;;4987240;28;20070;-64
2023/08/07 10:32:45;;;;;;;2.22;1.00;;;37.20;37.70;;;;;;4985318;28;20037;-64
2023/08/07 10:35:30;;;;;;;2.58;1.10;;;38.00;39.90;;;;;;4978320;28;20042;-65
2023/08/07 10:38:08;;;;;;;0.90;0.68;;;37.80;38.90;;;;;;4993580;28;20121;-64
2023/08/07 10:40:54;;;;;;;1.25;0.80;;;37.80;40.00;;;;;;4979269;28;20550;-64
2023/08/07 10:43:23;;;;;;;4.80;1.13;;;38.30;37.60;;;;;;4986424;28;20054;-64
2023/08/07 10:45:49;;;;;;;3.05;0.70;;;30.80;43.00;;;;;;4988823;28;20046;-63
2023/08/07 10:48:18;;;;;;;1.00;0.63;;;26.90;47.60;;;;;;4990720;28;20030;-63
2023/08/07 10:50:51;;;;;;;1.80;0.85;;;26.40;48.90;;;;;;4982176;28;20034;-64
2023/08/07 10:53:43;;;;;;;3.45;0.90;;;26.00;51.20;;;;;;4989216;28;20081;-64
2023/08/07 10:56:11;;;;;;;1.70;0.60;;;25.90;52.80;;;;;;4992820;28;20055;-65
2023/08/07 10:58:38;;;;;;;1.25;0.70;;;25.80;54.80;;;;;;4982818;28;20034;-64
2023/08/07 11:01:22;;;;;;;2.25;1.15;;;25.40;54.80;;;;;;4994539;28;20422;-65
2023/08/07 11:03:59;;;;;;;2.10;0.90;;;25.80;54.10;;;;;;4976710;28;20615;-64
2023/08/07 11:06:33;;;;;;;1.90;0.95;;;25.50;50.70;;;;;;4977783;28;20042;-65
2023/08/07 11:09:04;;;;;;;1.08;0.80;;;25.70;53.10;;;;;;4978277;28;20042;-65
2023/08/07 11:11:41;;;;;;;1.75;0.75;;;25.30;53.80;;;;;;4983051;28;20152;-65
2023/08/07 11:14:07;;;;;;;;;;;25.00;53.50;;;;;;4980277;28;20034;-65
2023/08/07 11:16:34;;;;;;;2.33;0.90;;;25.60;53.10;;;;;;4984114;28;20297;-65
2023/08/07 11:19:00;;;;;;;3.85;0.82;;;25.20;53.70;;;;;;4976679;28;20109;-64
2023/08/07 11:21:26;;;;;;;1.17;0.88;;;25.30;51.10;;;;;;5000719;28;20167;-65
2023/08/07 11:23:51;;;;;;;1.20;1.05;;;24.90;51.20;;;;;;4987714;28;20094;-65
2023/08/07 11:26:21;;;;;;;1.48;0.80;;;25.30;53.80;;;;;;4980740;28;20023;-64
2023/08/07 11:28:47;;;;;;;1.90;0.98;;;25.60;53.50;;;;;;4987328;28;20044;-65
2023/08/07 11:31:13;;;;;;;1.42;0.95;;;25.30;52.00;;;;;;4980932;28;20031;-64
2023/08/07 11:33:39;;;;;;;1.40;0.80;;;26.00;56.70;;;;;;4981069;28;20414;-64
2023/08/07 11:36:13;;;;;;;1.05;0.73;;;25.40;54.00;;;;;;4976057;28;20034;-65
2023/08/07 11:38:42;;;;;;;1.77;0.75;;;25.30;52.20;;;;;;4979179;28;20031;-65
2023/08/07 11:41:10;;;;;;;1.25;0.77;;;24.80;51.80;;;;;;4977892;28;20053;-65
2023/08/07 11:43:36;;;;;;;1.00;0.70;;;24.90;53.10;;;;;;4982549;28;20042;-64
2023/08/07 11:46:04;;;;;;;2.00;0.80;;;25.50;51.70;;;;;;4983908;28;20133;-65
2023/08/07 11:48:31;;;;;;;1.23;0.80;;;25.70;53.20;;;;;;4982862;28;20278;-65
2023/08/07 11:50:59;;;;;;;1.55;0.93;;;26.00;48.70;;;;;;4978289;28;20474;-65
2023/08/07 11:53:26;;;;;;;1.00;0.70;;;26.10;53.40;;;;;;4985021;28;20065;-65
2023/08/07 11:55:56;;;;;;;1.75;0.60;;;25.60;52.90;;;;;;4984095;28;20038;-65
2023/08/07 11:58:24;;;;;;;3.50;0.80;;;25.90;50.70;;;;;;4986631;28;20554;-65
2023/08/07 12:00:50;;;;;;;1.88;0.82;;;25.60;52.00;;;;;;4980217;28;20121;-65
2023/08/07 12:03:31;;;;;;;1.45;0.85;;;25.50;48.90;;;;;;4989890;28;20154;-65
2023/08/07 12:05:58;;;;;;;0.93;0.70;;;25.30;52.70;;;;;;4982169;28;20116;-65
2023/08/07 12:08:30;;;;;;;0.60;0.57;;;25.50;56.20;;;;;;4985116;28;20023;-65
2023/08/07 12:10:56;;;;;;;2.92;0.98;;;26.00;50.70;;;;;;4979625;28;20041;-65
2023/08/07 12:13:26;;;;;;;1.55;0.95;;;26.20;53.00;;;;;;4984773;28;20038;-64
2023/08/07 12:15:56;;;;;;;4.90;0.95;;;26.30;53.30;;;;;;4977849;28;20050;-64
2023/08/07 12:18:24;;;;;;;2.40;0.70;;;25.20;50.20;;;;;;4979022;28;20039;-64
2023/08/07 12:21:00;;;;;;;1.45;0.85;;;24.10;54.10;;;;;;4980981;28;20030;-64
2023/08/07 12:23:26;;;;;;;1.20;0.70;;;24.90;54.50;;;;;;4978479;28;20026;-64
2023/08/07 12:25:52;;;;;;;0.98;0.60;;;25.60;54.10;;;;;;4977664;28;20096;-64
2023/08/07 12:28:18;;;;;;;2.53;1.10;;;25.00;51.60;;;;;;4983444;28;20168;-64
2023/08/07 12:30:47;;;;;;;1.65;0.70;;;25.40;53.10;;;;;;4983181;28;20572;-65
2023/08/07 12:33:14;;;;;;;3.35;0.70;;;25.20;52.00;;;;;;4983044;28;20030;-66
2023/08/07 12:35:41;;;;;;;1.50;0.80;;;25.20;50.70;;;;;;4983874;28;20505;-65
2023/08/07 12:38:07;;;;;;;1.50;0.75;;;25.50;53.00;;;;;;4981963;28;20038;-65
2023/08/07 12:40:35;;;;;;;1.35;0.95;;;25.60;51.60;;;;;;4978909;28;20072;-65
2023/08/07 12:43:01;;;;;;;1.75;0.63;;;25.70;52.10;;;;;;4982201;28;20035;-65
2023/08/07 12:45:27;;;;;;;1.98;0.90;;;25.40;53.20;;;;;;4988828;28;20046;-65
2023/08/07 12:47:52;;;;;;;1.90;0.87;;;25.80;54.10;;;;;;4986386;28;20787;-65